sensor_id;sensor_type;location;lat;lon;timestamp;P1;durP1;ratioP1;P2;durP2;ratioP2
66179;SDS011;52986;44.028;20.466;2023-09-07T00:00:17;11.55;;;5.82;;
66179;SDS011;52986;44.028;20.466;2023-09-07T00:02:43;11.93;;;5.80;;
66179;SDS011;52986;44.028;20.466;2023-09-07T00:05:08;11.82;;;5.57;;
66179;SDS011;52986;44.028;20.466;2023-09-07T00:07:34;11.93;;;5.53;;
66179;SDS011;52986;44.028;20.466;2023-09-07T00:10:00;11.45;;;5.65;;
66179;SDS011;52986;44.028;20.466;2023-09-07T00:12:25;10.90;;;5.78;;
66179;SDS011;52986;44.028;20.466;2023-09-07T00:14:52;13.23;;;5.97;;
66179;SDS011;52986;44.028;20.466;2023-09-07T00:17:19;13.05;;;5.88;;
66179;SDS011;52986;44.028;20.466;2023-09-07T00:19:44;10.60;;;5.68;;
66179;SDS011;52986;44.028;20.466;2023-09-07T00:22:12;11.98;;;6.00;;
66179;SDS011;52986;44.028;20.466;2023-09-07T00:24:37;11.35;;;5.95;;
66179;SDS011;52986;44.028;20.466;2023-09-07T00:27:03;15.40;;;5.78;;
66179;SDS011;52986;44.028;20.466;2023-09-07T00:29:30;11.52;;;5.78;;
66179;SDS011;52986;44.028;20.466;2023-09-07T00:31:56;10.50;;;5.50;;
66179;SDS011;52986;44.028;20.466;2023-09-07T00:34:21;12.73;;;5.65;;
66179;SDS011;52986;44.028;20.466;2023-09-07T00:36:47;11.37;;;5.70;;
66179;SDS011;52986;44.028;20.466;2023-09-07T00:39:12;11.60;;;5.78;;
66179;SDS011;52986;44.028;20.466;2023-09-07T00:41:38;11.10;;;5.50;;
66179;SDS011;52986;44.028;20.466;2023-09-07T00:44:03;11.10;;;5.93;;
66179;SDS011;52986;44.028;20.466;2023-09-07T00:46:29;12.95;;;5.75;;
66179;SDS011;52986;44.028;20.466;2023-09-07T00:48:54;12.82;;;6.00;;
66179;SDS011;52986;44.028;20.466;2023-09-07T00:51:21;14.27;;;5.85;;
66179;SDS011;52986;44.028;20.466;2023-09-07T00:53:46;11.50;;;5.78;;
66179;SDS011;52986;44.028;20.466;2023-09-07T00:56:12;10.98;;;5.80;;
66179;SDS011;52986;44.028;20.466;2023-09-07T00:58:37;11.13;;;5.63;;
66179;SDS011;52986;44.028;20.466;2023-09-07T01:01:03;10.93;;;5.63;;
66179;SDS011;52986;44.028;20.466;2023-09-07T01:03:29;12.27;;;5.70;;
66179;SDS011;52986;44.028;20.466;2023-09-07T01:08:26;10.65;;;5.50;;
66179;SDS011;52986;44.028;20.466;2023-09-07T01:10:57;11.70;;;5.35;;
66179;SDS011;52986;44.028;20.466;2023-09-07T01:13:23;10.75;;;5.57;;
66179;SDS011;52986;44.028;20.466;2023-09-07T01:15:48;11.13;;;5.82;;
66179;SDS011;52986;44.028;20.466;2023-09-07T01:18:14;12.23;;;5.30;;
66179;SDS011;52986;44.028;20.466;2023-09-07T01:20:40;11.43;;;5.85;;
66179;SDS011;52986;44.028;20.466;2023-09-07T01:23:07;11.30;;;5.60;;
66179;SDS011;52986;44.028;20.466;2023-09-07T01:25:33;10.95;;;5.70;;
66179;SDS011;52986;44.028;20.466;2023-09-07T01:27:59;11.48;;;6.15;;
66179;SDS011;52986;44.028;20.466;2023-09-07T01:30:27;10.55;;;5.50;;
66179;SDS011;52986;44.028;20.466;2023-09-07T01:32:53;10.65;;;5.43;;
66179;SDS011;52986;44.028;20.466;2023-09-07T01:35:18;12.55;;;5.38;;
66179;SDS011;52986;44.028;20.466;2023-09-07T01:37:47;12.20;;;5.47;;
66179;SDS011;52986;44.028;20.466;2023-09-07T01:40:12;12.18;;;5.85;;
66179;SDS011;52986;44.028;20.466;2023-09-07T01:42:38;12.05;;;5.53;;
66179;SDS011;52986;44.028;20.466;2023-09-07T01:45:03;12.23;;;5.47;;
66179;SDS011;52986;44.028;20.466;2023-09-07T01:47:29;11.98;;;5.90;;
66179;SDS011;52986;44.028;20.466;2023-09-07T01:49:54;12.38;;;5.57;;
66179;SDS011;52986;44.028;20.466;2023-09-07T01:52:20;11.27;;;5.57;;
66179;SDS011;52986;44.028;20.466;2023-09-07T01:54:45;12.00;;;5.15;;
66179;SDS011;52986;44.028;20.466;2023-09-07T01:57:11;10.48;;;5.68;;
66179;SDS011;52986;44.028;20.466;2023-09-07T01:59:36;10.98;;;5.40;;
66179;SDS011;52986;44.028;20.466;2023-09-07T02:02:01;11.05;;;5.38;;
66179;SDS011;52986;44.028;20.466;2023-09-07T02:04:27;11.23;;;5.70;;
66179;SDS011;52986;44.028;20.466;2023-09-07T02:06:52;11.45;;;5.70;;
66179;SDS011;52986;44.028;20.466;2023-09-07T02:09:17;11.65;;;5.60;;
66179;SDS011;52986;44.028;20.466;2023-09-07T02:11:43;11.88;;;5.70;;
66179;SDS011;52986;44.028;20.466;2023-09-07T02:14:08;10.37;;;4.83;;
66179;SDS011;52986;44.028;20.466;2023-09-07T02:16:34;11.15;;;5.50;;
66179;SDS011;52986;44.028;20.466;2023-09-07T02:19:03;12.68;;;5.95;;
66179;SDS011;52986;44.028;20.466;2023-09-07T02:21:30;11.60;;;5.53;;
66179;SDS011;52986;44.028;20.466;2023-09-07T02:23:55;10.75;;;5.35;;
66179;SDS011;52986;44.028;20.466;2023-09-07T02:26:21;10.73;;;5.60;;
66179;SDS011;52986;44.028;20.466;2023-09-07T02:28:46;11.20;;;5.53;;
66179;SDS011;52986;44.028;20.466;2023-09-07T02:31:11;11.95;;;5.65;;
66179;SDS011;52986;44.028;20.466;2023-09-07T02:33:37;12.27;;;5.85;;
66179;SDS011;52986;44.028;20.466;2023-09-07T02:36:02;14.68;;;5.78;;
66179;SDS011;52986;44.028;20.466;2023-09-07T02:38:28;11.27;;;5.47;;
66179;SDS011;52986;44.028;20.466;2023-09-07T02:40:54;11.88;;;5.20;;
66179;SDS011;52986;44.028;20.466;2023-09-07T02:43:20;10.95;;;5.50;;
66179;SDS011;52986;44.028;20.466;2023-09-07T02:45:46;10.20;;;5.57;;
66179;SDS011;52986;44.028;20.466;2023-09-07T02:48:13;10.57;;;5.53;;
66179;SDS011;52986;44.028;20.466;2023-09-07T02:50:39;11.90;;;5.28;;
66179;SDS011;52986;44.028;20.466;2023-09-07T02:53:05;13.13;;;5.93;;
66179;SDS011;52986;44.028;20.466;2023-09-07T02:55:30;11.40;;;5.40;;
66179;SDS011;52986;44.028;20.466;2023-09-07T02:57:56;12.05;;;5.85;;
66179;SDS011;52986;44.028;20.466;2023-09-07T03:00:22;11.68;;;5.95;;
66179;SDS011;52986;44.028;20.466;2023-09-07T03:02:48;11.32;;;5.93;;
66179;SDS011;52986;44.028;20.466;2023-09-07T03:05:14;10.93;;;5.22;;
66179;SDS011;52986;44.028;20.466;2023-09-07T03:07:40;15.50;;;5.90;;
66179;SDS011;52986;44.028;20.466;2023-09-07T03:10:05;14.88;;;6.47;;
66179;SDS011;52986;44.028;20.466;2023-09-07T03:12:30;12.93;;;6.30;;
66179;SDS011;52986;44.028;20.466;2023-09-07T03:14:56;12.85;;;6.38;;
66179;SDS011;52986;44.028;20.466;2023-09-07T03:17:22;11.23;;;5.72;;
66179;SDS011;52986;44.028;20.466;2023-09-07T03:19:47;12.02;;;5.80;;
66179;SDS011;52986;44.028;20.466;2023-09-07T03:22:13;12.10;;;5.88;;
66179;SDS011;52986;44.028;20.466;2023-09-07T03:24:38;10.88;;;5.72;;
66179;SDS011;52986;44.028;20.466;2023-09-07T03:27:04;12.10;;;5.97;;
66179;SDS011;52986;44.028;20.466;2023-09-07T03:29:30;10.52;;;5.80;;
66179;SDS011;52986;44.028;20.466;2023-09-07T03:31:58;12.40;;;5.80;;
66179;SDS011;52986;44.028;20.466;2023-09-07T03:34:24;10.18;;;5.18;;
66179;SDS011;52986;44.028;20.466;2023-09-07T03:36:49;12.02;;;5.75;;
66179;SDS011;52986;44.028;20.466;2023-09-07T03:39:15;11.27;;;5.75;;
66179;SDS011;52986;44.028;20.466;2023-09-07T03:41:40;11.63;;;5.78;;
66179;SDS011;52986;44.028;20.466;2023-09-07T03:44:05;12.15;;;5.35;;
66179;SDS011;52986;44.028;20.466;2023-09-07T03:46:31;11.43;;;5.57;;
66179;SDS011;52986;44.028;20.466;2023-09-07T03:48:56;10.07;;;5.30;;
66179;SDS011;52986;44.028;20.466;2023-09-07T03:51:22;11.77;;;5.75;;
66179;SDS011;52986;44.028;20.466;2023-09-07T03:53:47;13.90;;;5.45;;
66179;SDS011;52986;44.028;20.466;2023-09-07T03:56:12;11.50;;;5.57;;
66179;SDS011;52986;44.028;20.466;2023-09-07T03:58:38;12.50;;;5.57;;
66179;SDS011;52986;44.028;20.466;2023-09-07T04:01:03;13.20;;;6.07;;
66179;SDS011;52986;44.028;20.466;2023-09-07T04:03:29;15.30;;;6.80;;
66179;SDS011;52986;44.028;20.466;2023-09-07T04:05:55;11.77;;;5.68;;
66179;SDS011;52986;44.028;20.466;2023-09-07T04:08:20;12.60;;;5.47;;
66179;SDS011;52986;44.028;20.466;2023-09-07T04:10:46;13.32;;;5.07;;
66179;SDS011;52986;44.028;20.466;2023-09-07T04:13:11;12.13;;;5.88;;
66179;SDS011;52986;44.028;20.466;2023-09-07T04:15:43;14.50;;;6.22;;
66179;SDS011;52986;44.028;20.466;2023-09-07T04:18:10;12.30;;;6.00;;
66179;SDS011;52986;44.028;20.466;2023-09-07T04:20:37;13.70;;;6.15;;
66179;SDS011;52986;44.028;20.466;2023-09-07T04:23:06;13.65;;;6.45;;
66179;SDS011;52986;44.028;20.466;2023-09-07T04:25:31;16.13;;;7.65;;
66179;SDS011;52986;44.028;20.466;2023-09-07T04:27:57;13.43;;;6.75;;
66179;SDS011;52986;44.028;20.466;2023-09-07T04:30:23;12.68;;;6.32;;
66179;SDS011;52986;44.028;20.466;2023-09-07T04:32:48;13.95;;;7.57;;
66179;SDS011;52986;44.028;20.466;2023-09-07T04:35:14;12.35;;;5.97;;
66179;SDS011;52986;44.028;20.466;2023-09-07T04:37:41;14.57;;;7.03;;
66179;SDS011;52986;44.028;20.466;2023-09-07T04:40:08;13.95;;;6.38;;
66179;SDS011;52986;44.028;20.466;2023-09-07T04:42:34;12.52;;;6.22;;
66179;SDS011;52986;44.028;20.466;2023-09-07T04:44:59;14.55;;;6.22;;
66179;SDS011;52986;44.028;20.466;2023-09-07T04:47:24;12.57;;;6.15;;
66179;SDS011;52986;44.028;20.466;2023-09-07T04:49:50;12.55;;;5.95;;
66179;SDS011;52986;44.028;20.466;2023-09-07T04:52:16;12.65;;;6.32;;
66179;SDS011;52986;44.028;20.466;2023-09-07T04:54:42;15.30;;;6.32;;
66179;SDS011;52986;44.028;20.466;2023-09-07T04:57:08;15.95;;;7.72;;
66179;SDS011;52986;44.028;20.466;2023-09-07T04:59:34;16.52;;;7.45;;
66179;SDS011;52986;44.028;20.466;2023-09-07T05:01:59;16.97;;;7.47;;
66179;SDS011;52986;44.028;20.466;2023-09-07T05:04:26;15.85;;;7.50;;
66179;SDS011;52986;44.028;20.466;2023-09-07T05:06:52;17.35;;;7.60;;
66179;SDS011;52986;44.028;20.466;2023-09-07T05:09:17;14.43;;;6.83;;
66179;SDS011;52986;44.028;20.466;2023-09-07T05:11:42;12.75;;;6.30;;
66179;SDS011;52986;44.028;20.466;2023-09-07T05:14:08;13.60;;;6.97;;
66179;SDS011;52986;44.028;20.466;2023-09-07T05:16:33;15.27;;;7.43;;
66179;SDS011;52986;44.028;20.466;2023-09-07T05:18:58;15.35;;;7.15;;
66179;SDS011;52986;44.028;20.466;2023-09-07T05:21:24;13.23;;;6.85;;
66179;SDS011;52986;44.028;20.466;2023-09-07T05:23:49;11.82;;;5.53;;
66179;SDS011;52986;44.028;20.466;2023-09-07T05:26:15;13.50;;;5.90;;
66179;SDS011;52986;44.028;20.466;2023-09-07T05:28:46;14.65;;;6.55;;
66179;SDS011;52986;44.028;20.466;2023-09-07T05:31:11;12.20;;;6.20;;
66179;SDS011;52986;44.028;20.466;2023-09-07T05:33:36;12.90;;;6.40;;
66179;SDS011;52986;44.028;20.466;2023-09-07T05:36:02;12.18;;;6.20;;
66179;SDS011;52986;44.028;20.466;2023-09-07T05:38:27;11.27;;;6.30;;
66179;SDS011;52986;44.028;20.466;2023-09-07T05:40:54;13.30;;;6.43;;
66179;SDS011;52986;44.028;20.466;2023-09-07T05:43:19;13.63;;;6.20;;
66179;SDS011;52986;44.028;20.466;2023-09-07T05:45:46;13.00;;;6.03;;
66179;SDS011;52986;44.028;20.466;2023-09-07T05:48:11;15.05;;;6.45;;
66179;SDS011;52986;44.028;20.466;2023-09-07T05:50:37;12.97;;;6.63;;
66179;SDS011;52986;44.028;20.466;2023-09-07T05:53:03;14.60;;;6.72;;
66179;SDS011;52986;44.028;20.466;2023-09-07T05:55:29;16.42;;;7.57;;
66179;SDS011;52986;44.028;20.466;2023-09-07T05:57:55;12.07;;;6.70;;
66179;SDS011;52986;44.028;20.466;2023-09-07T06:00:21;14.25;;;6.80;;
66179;SDS011;52986;44.028;20.466;2023-09-07T06:02:47;16.25;;;6.95;;
66179;SDS011;52986;44.028;20.466;2023-09-07T06:05:12;11.30;;;6.05;;
66179;SDS011;52986;44.028;20.466;2023-09-07T06:07:38;13.00;;;6.20;;
66179;SDS011;52986;44.028;20.466;2023-09-07T06:10:04;12.90;;;5.82;;
66179;SDS011;52986;44.028;20.466;2023-09-07T06:12:30;13.73;;;6.45;;
66179;SDS011;52986;44.028;20.466;2023-09-07T06:15:02;12.43;;;6.28;;
66179;SDS011;52986;44.028;20.466;2023-09-07T06:17:28;12.48;;;6.40;;
66179;SDS011;52986;44.028;20.466;2023-09-07T06:19:53;14.65;;;6.85;;
66179;SDS011;52986;44.028;20.466;2023-09-07T06:22:20;13.25;;;6.80;;
66179;SDS011;52986;44.028;20.466;2023-09-07T06:24:45;13.48;;;6.57;;
66179;SDS011;52986;44.028;20.466;2023-09-07T06:27:10;12.30;;;6.63;;
66179;SDS011;52986;44.028;20.466;2023-09-07T06:29:36;12.75;;;5.80;;
66179;SDS011;52986;44.028;20.466;2023-09-07T06:32:01;18.55;;;9.02;;
66179;SDS011;52986;44.028;20.466;2023-09-07T06:34:27;15.40;;;6.05;;
66179;SDS011;52986;44.028;20.466;2023-09-07T06:36:52;15.68;;;6.60;;
66179;SDS011;52986;44.028;20.466;2023-09-07T06:39:17;12.20;;;6.53;;
66179;SDS011;52986;44.028;20.466;2023-09-07T06:41:45;14.10;;;6.95;;
66179;SDS011;52986;44.028;20.466;2023-09-07T06:44:11;13.43;;;6.60;;
66179;SDS011;52986;44.028;20.466;2023-09-07T06:46:36;16.05;;;7.13;;
66179;SDS011;52986;44.028;20.466;2023-09-07T06:49:01;16.10;;;6.95;;
66179;SDS011;52986;44.028;20.466;2023-09-07T06:51:28;13.93;;;6.65;;
66179;SDS011;52986;44.028;20.466;2023-09-07T06:53:53;16.73;;;6.40;;
66179;SDS011;52986;44.028;20.466;2023-09-07T06:56:19;14.48;;;6.93;;
66179;SDS011;52986;44.028;20.466;2023-09-07T06:58:44;13.73;;;5.30;;
66179;SDS011;52986;44.028;20.466;2023-09-07T07:01:09;17.48;;;5.93;;
66179;SDS011;52986;44.028;20.466;2023-09-07T07:03:35;10.15;;;4.32;;
66179;SDS011;52986;44.028;20.466;2023-09-07T07:06:00;10.75;;;4.20;;
66179;SDS011;52986;44.028;20.466;2023-09-07T07:08:26;8.60;;;3.92;;
66179;SDS011;52986;44.028;20.466;2023-09-07T07:10:51;8.40;;;3.67;;
66179;SDS011;52986;44.028;20.466;2023-09-07T07:13:18;7.53;;;3.50;;
66179;SDS011;52986;44.028;20.466;2023-09-07T07:15:43;9.88;;;4.00;;
66179;SDS011;52986;44.028;20.466;2023-09-07T07:18:08;8.60;;;3.63;;
66179;SDS011;52986;44.028;20.466;2023-09-07T07:20:34;9.05;;;4.00;;
66179;SDS011;52986;44.028;20.466;2023-09-07T07:23:00;9.35;;;3.95;;
66179;SDS011;52986;44.028;20.466;2023-09-07T07:25:26;10.05;;;4.35;;
66179;SDS011;52986;44.028;20.466;2023-09-07T07:27:51;8.80;;;4.22;;
66179;SDS011;52986;44.028;20.466;2023-09-07T07:30:16;8.63;;;3.90;;
66179;SDS011;52986;44.028;20.466;2023-09-07T07:32:42;8.85;;;4.15;;
66179;SDS011;52986;44.028;20.466;2023-09-07T07:35:07;9.43;;;4.05;;
66179;SDS011;52986;44.028;20.466;2023-09-07T07:37:33;9.40;;;4.00;;
66179;SDS011;52986;44.028;20.466;2023-09-07T07:39:58;13.15;;;4.30;;
66179;SDS011;52986;44.028;20.466;2023-09-07T07:42:23;11.75;;;4.55;;
66179;SDS011;52986;44.028;20.466;2023-09-07T07:44:49;9.50;;;4.45;;
66179;SDS011;52986;44.028;20.466;2023-09-07T07:47:14;9.93;;;4.33;;
66179;SDS011;52986;44.028;20.466;2023-09-07T07:49:40;13.13;;;4.38;;
66179;SDS011;52986;44.028;20.466;2023-09-07T07:52:05;9.48;;;4.30;;
66179;SDS011;52986;44.028;20.466;2023-09-07T07:54:32;9.27;;;4.05;;
66179;SDS011;52986;44.028;20.466;2023-09-07T07:56:58;10.30;;;4.30;;
66179;SDS011;52986;44.028;20.466;2023-09-07T07:59:23;8.52;;;4.20;;
66179;SDS011;52986;44.028;20.466;2023-09-07T08:01:49;11.43;;;4.40;;
66179;SDS011;52986;44.028;20.466;2023-09-07T08:04:14;11.88;;;4.30;;
66179;SDS011;52986;44.028;20.466;2023-09-07T08:06:40;10.93;;;4.22;;
66179;SDS011;52986;44.028;20.466;2023-09-07T08:09:05;10.00;;;4.40;;
66179;SDS011;52986;44.028;20.466;2023-09-07T08:11:31;8.93;;;4.28;;
66179;SDS011;52986;44.028;20.466;2023-09-07T08:13:56;10.00;;;4.70;;
66179;SDS011;52986;44.028;20.466;2023-09-07T08:16:22;12.43;;;4.53;;
66179;SDS011;52986;44.028;20.466;2023-09-07T08:18:47;8.50;;;4.20;;
66179;SDS011;52986;44.028;20.466;2023-09-07T08:21:13;11.75;;;4.30;;
66179;SDS011;52986;44.028;20.466;2023-09-07T08:23:39;8.27;;;4.00;;
66179;SDS011;52986;44.028;20.466;2023-09-07T08:26:05;11.32;;;3.92;;
66179;SDS011;52986;44.028;20.466;2023-09-07T08:28:30;11.25;;;4.13;;
66179;SDS011;52986;44.028;20.466;2023-09-07T08:30:56;10.07;;;3.80;;
66179;SDS011;52986;44.028;20.466;2023-09-07T08:33:24;10.70;;;4.30;;
66179;SDS011;52986;44.028;20.466;2023-09-07T08:35:54;10.77;;;3.83;;
66179;SDS011;52986;44.028;20.466;2023-09-07T08:38:20;9.07;;;4.03;;
66179;SDS011;52986;44.028;20.466;2023-09-07T08:40:49;8.98;;;3.72;;
66179;SDS011;52986;44.028;20.466;2023-09-07T08:43:16;9.13;;;3.75;;
66179;SDS011;52986;44.028;20.466;2023-09-07T08:45:46;10.77;;;4.55;;
66179;SDS011;52986;44.028;20.466;2023-09-07T08:48:16;9.05;;;4.03;;
66179;SDS011;52986;44.028;20.466;2023-09-07T08:50:44;12.40;;;4.38;;
66179;SDS011;52986;44.028;20.466;2023-09-07T08:53:15;9.98;;;3.80;;
66179;SDS011;52986;44.028;20.466;2023-09-07T08:55:43;9.02;;;3.88;;
66179;SDS011;52986;44.028;20.466;2023-09-07T08:58:08;8.20;;;3.92;;
66179;SDS011;52986;44.028;20.466;2023-09-07T09:00:34;9.63;;;3.83;;
66179;SDS011;52986;44.028;20.466;2023-09-07T09:03:01;9.25;;;3.80;;
66179;SDS011;52986;44.028;20.466;2023-09-07T09:05:27;9.07;;;3.90;;
66179;SDS011;52986;44.028;20.466;2023-09-07T09:08:03;10.30;;;3.85;;
66179;SDS011;52986;44.028;20.466;2023-09-07T09:10:29;7.82;;;3.45;;
66179;SDS011;52986;44.028;20.466;2023-09-07T09:12:55;11.15;;;4.10;;
66179;SDS011;52986;44.028;20.466;2023-09-07T09:15:23;10.35;;;4.05;;
66179;SDS011;52986;44.028;20.466;2023-09-07T09:17:49;10.82;;;4.10;;
66179;SDS011;52986;44.028;20.466;2023-09-07T09:20:23;8.48;;;3.97;;
66179;SDS011;52986;44.028;20.466;2023-09-07T09:22:53;8.68;;;4.05;;
66179;SDS011;52986;44.028;20.466;2023-09-07T09:25:20;9.18;;;4.28;;
66179;SDS011;52986;44.028;20.466;2023-09-07T09:27:48;11.02;;;4.10;;
66179;SDS011;52986;44.028;20.466;2023-09-07T09:30:14;12.98;;;4.10;;
66179;SDS011;52986;44.028;20.466;2023-09-07T09:32:41;11.68;;;4.38;;
66179;SDS011;52986;44.028;20.466;2023-09-07T09:35:07;11.48;;;4.53;;
66179;SDS011;52986;44.028;20.466;2023-09-07T09:37:34;12.25;;;4.70;;
66179;SDS011;52986;44.028;20.466;2023-09-07T09:40:08;10.38;;;4.78;;
66179;SDS011;52986;44.028;20.466;2023-09-07T09:42:35;9.60;;;4.10;;
66179;SDS011;52986;44.028;20.466;2023-09-07T09:45:01;8.63;;;4.13;;
66179;SDS011;52986;44.028;20.466;2023-09-07T09:47:29;9.50;;;4.22;;
66179;SDS011;52986;44.028;20.466;2023-09-07T09:49:56;10.38;;;4.00;;
66179;SDS011;52986;44.028;20.466;2023-09-07T09:52:23;9.95;;;4.20;;
66179;SDS011;52986;44.028;20.466;2023-09-07T09:54:49;9.13;;;4.05;;
66179;SDS011;52986;44.028;20.466;2023-09-07T09:57:16;8.88;;;4.40;;
66179;SDS011;52986;44.028;20.466;2023-09-07T09:59:41;9.80;;;4.13;;
66179;SDS011;52986;44.028;20.466;2023-09-07T10:02:06;10.88;;;4.18;;
66179;SDS011;52986;44.028;20.466;2023-09-07T10:04:32;8.43;;;4.35;;
66179;SDS011;52986;44.028;20.466;2023-09-07T10:06:59;9.50;;;4.40;;
66179;SDS011;52986;44.028;20.466;2023-09-07T10:09:32;9.10;;;4.35;;
66179;SDS011;52986;44.028;20.466;2023-09-07T10:11:59;12.10;;;4.80;;
66179;SDS011;52986;44.028;20.466;2023-09-07T10:14:25;8.10;;;4.38;;
66179;SDS011;52986;44.028;20.466;2023-09-07T10:16:51;8.02;;;4.30;;
66179;SDS011;52986;44.028;20.466;2023-09-07T10:21:47;10.65;;;4.50;;
66179;SDS011;52986;44.028;20.466;2023-09-07T10:24:29;10.13;;;4.60;;
66179;SDS011;52986;44.028;20.466;2023-09-07T10:27:02;10.02;;;4.65;;
66179;SDS011;52986;44.028;20.466;2023-09-07T10:29:41;9.52;;;4.50;;
66179;SDS011;52986;44.028;20.466;2023-09-07T10:32:09;9.98;;;4.43;;
66179;SDS011;52986;44.028;20.466;2023-09-07T10:34:37;9.55;;;4.60;;
66179;SDS011;52986;44.028;20.466;2023-09-07T10:37:04;9.05;;;4.60;;
66179;SDS011;52986;44.028;20.466;2023-09-07T10:39:32;14.57;;;4.72;;
66179;SDS011;52986;44.028;20.466;2023-09-07T10:41:57;9.18;;;4.28;;
66179;SDS011;52986;44.028;20.466;2023-09-07T10:44:29;11.93;;;4.50;;
66179;SDS011;52986;44.028;20.466;2023-09-07T10:46:54;9.80;;;4.60;;
66179;SDS011;52986;44.028;20.466;2023-09-07T10:49:21;10.57;;;4.10;;
66179;SDS011;52986;44.028;20.466;2023-09-07T10:51:47;9.63;;;4.43;;
66179;SDS011;52986;44.028;20.466;2023-09-07T10:54:17;9.43;;;4.22;;
66179;SDS011;52986;44.028;20.466;2023-09-07T10:56:44;10.30;;;4.25;;
66179;SDS011;52986;44.028;20.466;2023-09-07T10:59:11;9.60;;;4.30;;
66179;SDS011;52986;44.028;20.466;2023-09-07T11:01:40;8.80;;;4.00;;
66179;SDS011;52986;44.028;20.466;2023-09-07T11:04:05;8.63;;;4.30;;
66179;SDS011;52986;44.028;20.466;2023-09-07T11:06:33;9.95;;;4.68;;
66179;SDS011;52986;44.028;20.466;2023-09-07T11:08:59;11.70;;;4.57;;
66179;SDS011;52986;44.028;20.466;2023-09-07T11:11:26;10.27;;;4.40;;
66179;SDS011;52986;44.028;20.466;2023-09-07T11:13:52;9.82;;;4.75;;
66179;SDS011;52986;44.028;20.466;2023-09-07T11:16:17;8.73;;;4.43;;
66179;SDS011;52986;44.028;20.466;2023-09-07T11:18:42;8.15;;;4.50;;
66179;SDS011;52986;44.028;20.466;2023-09-07T11:21:09;11.43;;;4.63;;
66179;SDS011;52986;44.028;20.466;2023-09-07T11:23:35;11.18;;;4.80;;
66179;SDS011;52986;44.028;20.466;2023-09-07T11:26:09;10.80;;;4.70;;
66179;SDS011;52986;44.028;20.466;2023-09-07T11:28:35;8.20;;;4.40;;
66179;SDS011;52986;44.028;20.466;2023-09-07T11:31:00;10.50;;;4.75;;
66179;SDS011;52986;44.028;20.466;2023-09-07T11:33:26;9.88;;;4.28;;
66179;SDS011;52986;44.028;20.466;2023-09-07T11:35:52;10.43;;;4.43;;
66179;SDS011;52986;44.028;20.466;2023-09-07T11:38:21;10.82;;;4.72;;
66179;SDS011;52986;44.028;20.466;2023-09-07T11:40:47;11.50;;;4.60;;
66179;SDS011;52986;44.028;20.466;2023-09-07T11:43:16;10.55;;;4.60;;
66179;SDS011;52986;44.028;20.466;2023-09-07T11:45:45;9.95;;;4.35;;
66179;SDS011;52986;44.028;20.466;2023-09-07T11:48:11;9.07;;;4.45;;
66179;SDS011;52986;44.028;20.466;2023-09-07T11:50:37;12.75;;;4.60;;
66179;SDS011;52986;44.028;20.466;2023-09-07T11:53:04;9.95;;;4.22;;
66179;SDS011;52986;44.028;20.466;2023-09-07T11:55:30;10.45;;;4.60;;
66179;SDS011;52986;44.028;20.466;2023-09-07T11:57:55;7.53;;;4.05;;
66179;SDS011;52986;44.028;20.466;2023-09-07T12:00:21;8.38;;;4.25;;
66179;SDS011;52986;44.028;20.466;2023-09-07T12:02:47;9.73;;;4.45;;
66179;SDS011;52986;44.028;20.466;2023-09-07T12:05:13;9.25;;;4.05;;
66179;SDS011;52986;44.028;20.466;2023-09-07T12:07:40;9.57;;;4.43;;
66179;SDS011;52986;44.028;20.466;2023-09-07T12:10:10;9.65;;;4.40;;
66179;SDS011;52986;44.028;20.466;2023-09-07T12:12:37;9.23;;;4.65;;
66179;SDS011;52986;44.028;20.466;2023-09-07T12:15:02;9.65;;;4.30;;
66179;SDS011;52986;44.028;20.466;2023-09-07T12:17:33;9.68;;;4.20;;
66179;SDS011;52986;44.028;20.466;2023-09-07T12:19:58;10.73;;;4.63;;
66179;SDS011;52986;44.028;20.466;2023-09-07T12:22:25;9.55;;;4.10;;
66179;SDS011;52986;44.028;20.466;2023-09-07T12:24:51;8.95;;;4.50;;
66179;SDS011;52986;44.028;20.466;2023-09-07T12:27:16;8.77;;;4.30;;
66179;SDS011;52986;44.028;20.466;2023-09-07T12:29:41;12.07;;;4.60;;
66179;SDS011;52986;44.028;20.466;2023-09-07T12:32:07;9.82;;;4.50;;
66179;SDS011;52986;44.028;20.466;2023-09-07T12:34:32;9.32;;;4.40;;
66179;SDS011;52986;44.028;20.466;2023-09-07T12:36:58;9.13;;;4.10;;
66179;SDS011;52986;44.028;20.466;2023-09-07T12:39:24;8.23;;;3.90;;
66179;SDS011;52986;44.028;20.466;2023-09-07T12:41:49;8.68;;;4.25;;
66179;SDS011;52986;44.028;20.466;2023-09-07T12:44:15;9.57;;;4.20;;
66179;SDS011;52986;44.028;20.466;2023-09-07T12:46:40;8.75;;;4.35;;
66179;SDS011;52986;44.028;20.466;2023-09-07T12:49:05;11.82;;;4.55;;
66179;SDS011;52986;44.028;20.466;2023-09-07T12:51:31;9.43;;;4.53;;
66179;SDS011;52986;44.028;20.466;2023-09-07T12:53:56;9.73;;;4.55;;
66179;SDS011;52986;44.028;20.466;2023-09-07T12:56:22;10.63;;;4.53;;
66179;SDS011;52986;44.028;20.466;2023-09-07T12:58:47;9.70;;;4.55;;
66179;SDS011;52986;44.028;20.466;2023-09-07T13:01:14;7.95;;;4.07;;
66179;SDS011;52986;44.028;20.466;2023-09-07T13:03:41;10.70;;;4.70;;
66179;SDS011;52986;44.028;20.466;2023-09-07T13:06:06;9.75;;;4.80;;
66179;SDS011;52986;44.028;20.466;2023-09-07T13:08:32;11.40;;;4.30;;
66179;SDS011;52986;44.028;20.466;2023-09-07T13:10:58;10.20;;;4.90;;
66179;SDS011;52986;44.028;20.466;2023-09-07T13:13:23;11.35;;;4.80;;
66179;SDS011;52986;44.028;20.466;2023-09-07T13:15:57;9.38;;;4.30;;
66179;SDS011;52986;44.028;20.466;2023-09-07T13:18:23;9.95;;;4.72;;
66179;SDS011;52986;44.028;20.466;2023-09-07T13:20:49;9.52;;;4.47;;
66179;SDS011;52986;44.028;20.466;2023-09-07T13:23:16;11.10;;;4.90;;
66179;SDS011;52986;44.028;20.466;2023-09-07T13:25:43;10.20;;;4.40;;
66179;SDS011;52986;44.028;20.466;2023-09-07T13:28:08;10.75;;;4.45;;
66179;SDS011;52986;44.028;20.466;2023-09-07T13:30:34;10.98;;;4.80;;
66179;SDS011;52986;44.028;20.466;2023-09-07T13:32:59;10.07;;;4.53;;
66179;SDS011;52986;44.028;20.466;2023-09-07T13:35:25;9.65;;;4.40;;
66179;SDS011;52986;44.028;20.466;2023-09-07T13:37:51;9.40;;;4.55;;
66179;SDS011;52986;44.028;20.466;2023-09-07T13:40:16;10.18;;;4.72;;
66179;SDS011;52986;44.028;20.466;2023-09-07T13:42:44;10.00;;;4.53;;
66179;SDS011;52986;44.028;20.466;2023-09-07T13:45:10;11.80;;;4.43;;
66179;SDS011;52986;44.028;20.466;2023-09-07T13:47:36;9.70;;;4.75;;
66179;SDS011;52986;44.028;20.466;2023-09-07T13:50:01;11.50;;;5.07;;
66179;SDS011;52986;44.028;20.466;2023-09-07T13:52:28;9.45;;;4.82;;
66179;SDS011;52986;44.028;20.466;2023-09-07T13:54:53;9.80;;;4.28;;
66179;SDS011;52986;44.028;20.466;2023-09-07T13:57:18;9.20;;;4.50;;
66179;SDS011;52986;44.028;20.466;2023-09-07T13:59:44;10.87;;;4.30;;
66179;SDS011;52986;44.028;20.466;2023-09-07T14:02:09;10.13;;;4.35;;
66179;SDS011;52986;44.028;20.466;2023-09-07T14:04:34;9.60;;;4.23;;
66179;SDS011;52986;44.028;20.466;2023-09-07T14:07:00;10.60;;;4.43;;
66179;SDS011;52986;44.028;20.466;2023-09-07T14:09:25;9.33;;;4.40;;
66179;SDS011;52986;44.028;20.466;2023-09-07T14:11:50;9.52;;;4.43;;
66179;SDS011;52986;44.028;20.466;2023-09-07T14:14:16;9.20;;;4.10;;
66179;SDS011;52986;44.028;20.466;2023-09-07T14:16:41;9.07;;;4.10;;
66179;SDS011;52986;44.028;20.466;2023-09-07T14:19:07;9.55;;;4.20;;
66179;SDS011;52986;44.028;20.466;2023-09-07T14:21:32;9.77;;;4.30;;
66179;SDS011;52986;44.028;20.466;2023-09-07T14:23:58;10.07;;;4.35;;